createdAt,value
2018-04-04T00:00:45.930Z,1.50
2018-04-04T00:03:12.511Z,1.70
2018-04-04T00:05:39.115Z,1.77
2018-04-04T00:08:05.838Z,1.80
2018-04-04T00:10:32.448Z,1.70
2018-04-04T00:12:59.058Z,1.92
2018-04-04T00:15:25.691Z,1.60
2018-04-04T00:17:52.481Z,2.15
2018-04-04T00:20:19.053Z,2.05
2018-04-04T00:22:45.691Z,1.85
2018-04-04T00:25:12.301Z,1.73
2018-04-04T00:27:38.911Z,1.92
2018-04-04T00:30:05.503Z,1.80
2018-04-04T00:32:32.401Z,2.03
2018-04-04T00:34:59.008Z,1.90
2018-04-04T00:37:25.693Z,2.10
2018-04-04T00:39:52.278Z,2.30
2018-04-04T00:42:18.872Z,2.00
2018-04-04T00:44:45.499Z,2.08
2018-04-04T00:47:12.103Z,2.20
2018-04-04T00:49:38.697Z,1.77
2018-04-04T00:52:05.294Z,2.10
2018-04-04T00:54:31.900Z,2.10
2018-04-04T00:56:58.542Z,1.85
2018-04-04T00:59:25.187Z,1.80
2018-04-04T01:01:51.791Z,1.95
2018-04-04T01:04:18.396Z,2.10
2018-04-04T01:06:45.086Z,1.77
2018-04-04T01:09:11.705Z,1.95
2018-04-04T01:11:38.535Z,2.12
2018-04-04T01:14:05.191Z,2.00
2018-04-04T01:16:31.795Z,2.10
2018-04-04T01:18:58.394Z,2.10
2018-04-04T01:21:24.993Z,2.05
2018-04-04T01:23:51.623Z,1.90
2018-04-04T01:26:18.562Z,1.97
2018-04-04T01:28:45.149Z,2.10
2018-04-04T01:31:11.777Z,1.98
2018-04-04T01:33:38.575Z,2.00
2018-04-04T01:36:05.410Z,1.90
2018-04-04T01:38:31.996Z,2.00
2018-04-04T01:40:58.602Z,1.98
2018-04-04T01:43:25.535Z,2.10
2018-04-04T01:45:52.134Z,1.90
2018-04-04T01:48:19.014Z,2.25
2018-04-04T01:50:45.610Z,2.10
2018-04-04T01:53:12.264Z,2.00
2018-04-04T01:55:38.876Z,2.12
2018-04-04T01:58:05.778Z,2.20
2018-04-04T02:00:32.345Z,2.20
2018-04-04T02:02:58.930Z,2.40
2018-04-04T02:05:25.895Z,2.53
2018-04-04T02:07:52.508Z,2.40
2018-04-04T02:10:19.110Z,2.50
2018-04-04T02:12:46.010Z,2.90
2018-04-04T02:15:12.640Z,2.20
2018-04-04T02:17:39.235Z,2.85
2018-04-04T02:20:05.838Z,2.40
2018-04-04T02:22:32.496Z,2.50
2018-04-04T02:24:59.107Z,2.70
2018-04-04T02:27:25.731Z,2.60
2018-04-04T02:29:52.318Z,2.70
2018-04-04T02:32:19.049Z,2.70
2018-04-04T02:34:45.665Z,2.80
2018-04-04T02:37:12.245Z,2.60
2018-04-04T02:39:38.830Z,2.58
2018-04-04T02:42:05.467Z,2.80
2018-04-04T02:44:32.053Z,3.10
2018-04-04T02:46:58.663Z,2.70
2018-04-04T02:49:25.262Z,2.65
2018-04-04T02:51:51.885Z,2.90
2018-04-04T02:54:18.769Z,2.60
2018-04-04T02:56:45.358Z,2.40
2018-04-04T02:59:12.248Z,2.70
2018-04-04T03:01:38.822Z,2.60
2018-04-04T03:04:05.442Z,2.42
2018-04-04T03:06:32.022Z,2.30
2018-04-04T03:08:58.768Z,2.50
2018-04-04T03:11:25.398Z,2.45
2018-04-04T03:13:51.978Z,2.00
2018-04-04T03:16:18.589Z,2.30
2018-04-04T03:18:45.238Z,1.75
2018-04-04T03:21:11.851Z,1.83
2018-04-04T03:23:38.424Z,2.10
2018-04-04T03:26:05.026Z,1.90
2018-04-04T03:28:31.606Z,2.05
2018-04-04T03:30:58.191Z,1.73
2018-04-04T03:33:25.077Z,1.90
2018-04-04T03:35:51.653Z,1.90
2018-04-04T03:38:18.264Z,2.00
2018-04-04T03:40:44.891Z,2.10
2018-04-04T03:43:11.864Z,1.90
2018-04-04T03:45:38.439Z,1.90
2018-04-04T03:48:05.050Z,1.75
2018-04-04T03:50:31.659Z,1.70
2018-04-04T03:52:58.230Z,1.90
2018-04-04T03:55:24.939Z,1.80
2018-04-04T03:57:51.518Z,1.77
2018-04-04T04:00:18.128Z,1.80
2018-04-04T04:02:44.733Z,1.73
2018-04-04T04:05:11.326Z,1.90
2018-04-04T04:07:37.902Z,1.90
2018-04-04T04:10:04.575Z,1.70
2018-04-04T04:12:31.399Z,1.70
2018-04-04T04:14:58.243Z,1.90
2018-04-04T04:17:24.883Z,1.90
2018-04-04T04:19:51.466Z,1.70
2018-04-04T04:22:18.088Z,1.80
2018-04-04T04:24:44.699Z,1.80
2018-04-04T04:27:11.303Z,2.00
2018-04-04T04:29:37.869Z,1.90
2018-04-04T04:32:04.518Z,2.20
2018-04-04T04:34:31.263Z,2.30
2018-04-04T04:36:57.875Z,1.90
2018-04-04T04:39:24.725Z,2.12
2018-04-04T04:41:51.565Z,2.10
2018-04-04T04:44:18.141Z,2.00
2018-04-04T04:46:44.750Z,2.17
2018-04-04T04:49:11.510Z,2.13
2018-04-04T04:51:38.111Z,2.03
2018-04-04T04:54:04.718Z,2.10
2018-04-04T04:56:31.295Z,2.15
2018-04-04T04:58:57.899Z,1.90
2018-04-04T05:01:24.531Z,2.10
2018-04-04T05:03:51.097Z,2.20
2018-04-04T05:06:17.681Z,2.20
2018-04-04T05:08:44.289Z,1.92
2018-04-04T05:11:10.906Z,2.30
2018-04-04T05:13:37.479Z,2.20
2018-04-04T05:16:04.122Z,2.08
2018-04-04T05:18:30.731Z,2.15
2018-04-04T05:20:57.359Z,1.90
2018-04-04T05:23:23.961Z,2.60
2018-04-04T05:25:50.554Z,2.20
2018-04-04T05:28:17.394Z,2.10
2018-04-04T05:30:44.003Z,1.80
2018-04-04T05:33:10.576Z,2.00
2018-04-04T05:35:37.166Z,2.20
2018-04-04T05:38:03.773Z,2.15
2018-04-04T05:40:30.382Z,1.65
2018-04-04T05:42:57.022Z,1.80
2018-04-04T05:45:23.610Z,1.73
2018-04-04T05:47:50.213Z,1.80
2018-04-04T05:50:16.839Z,1.50
2018-04-04T05:52:43.437Z,1.40
2018-04-04T05:55:10.022Z,1.40
2018-04-04T05:57:51.525Z,1.40
2018-04-04T06:00:18.439Z,1.48
2018-04-04T06:02:45.222Z,1.50
2018-04-04T06:05:12.329Z,1.37
2018-04-04T06:07:39.114Z,1.50
2018-04-04T06:10:06.054Z,1.17
2018-04-04T06:12:32.951Z,1.35
2018-04-04T06:14:59.745Z,1.42
2018-04-04T06:17:26.592Z,1.50
2018-04-04T06:19:53.464Z,1.42
2018-04-04T06:22:20.242Z,1.50
2018-04-04T06:24:47.025Z,1.60
2018-04-04T06:27:13.863Z,1.37
2018-04-04T06:29:40.678Z,1.42
2018-04-04T06:32:07.709Z,1.42
2018-04-04T06:34:34.518Z,1.30
2018-04-04T06:37:01.301Z,1.40
2018-04-04T06:39:28.112Z,1.27
2018-04-04T06:41:54.918Z,1.30
2018-04-04T06:44:21.714Z,1.10
2018-04-04T06:46:48.771Z,1.00
2018-04-04T06:49:15.596Z,0.80
2018-04-04T06:51:42.404Z,1.10
2018-04-04T06:54:09.231Z,3.33
2018-04-04T06:56:36.062Z,1.00
2018-04-04T06:59:02.857Z,0.82
2018-04-04T07:01:29.927Z,0.80
2018-04-04T07:03:56.776Z,0.85
2018-04-04T07:06:23.814Z,0.70
2018-04-04T07:08:50.598Z,0.90
2018-04-04T07:11:17.443Z,0.70
2018-04-04T07:13:44.317Z,0.50
2018-04-04T07:16:11.316Z,0.60
2018-04-04T07:18:38.167Z,0.60
2018-04-04T07:21:04.987Z,0.70
2018-04-04T07:23:31.765Z,0.60
2018-04-04T07:25:58.870Z,0.80
2018-04-04T07:28:25.926Z,0.80
2018-04-04T07:30:52.731Z,0.70
2018-04-04T07:33:19.571Z,0.73
2018-04-04T07:35:46.394Z,0.80
2018-04-04T07:38:13.495Z,1.15
2018-04-04T07:40:40.340Z,0.90
2018-04-04T07:43:07.115Z,0.93
2018-04-04T07:45:33.897Z,1.00
2018-04-04T07:48:00.806Z,1.10
2018-04-04T07:50:27.594Z,1.00
2018-04-04T07:52:54.382Z,1.10
2018-04-04T07:55:21.230Z,1.10
2018-04-04T07:57:48.352Z,1.10
2018-04-04T08:00:15.402Z,1.12
2018-04-04T08:02:42.221Z,1.05
2018-04-04T08:05:09.105Z,1.10
2018-04-04T08:07:35.874Z,1.40
2018-04-04T08:10:02.714Z,1.40
2018-04-04T08:12:29.526Z,1.40
2018-04-04T08:14:56.330Z,1.40
2018-04-04T08:17:23.153Z,1.75
2018-04-04T08:19:50.171Z,1.40
2018-04-04T08:22:16.955Z,1.40
2018-04-04T08:24:44.038Z,1.40
2018-04-04T08:27:10.839Z,2.10
2018-04-04T08:29:37.926Z,2.40
2018-04-04T08:33:37.983Z,2.60
2018-04-04T08:36:04.803Z,2.80
2018-04-04T08:38:31.838Z,2.62
2018-04-04T08:40:58.886Z,1.80
2018-04-04T08:43:25.707Z,1.70
2018-04-04T08:45:52.891Z,1.40
2018-04-04T08:48:19.808Z,1.50
2018-04-04T08:50:46.666Z,1.70
2018-04-04T08:53:13.557Z,1.98
2018-04-04T08:55:40.700Z,3.70
2018-04-04T08:58:07.780Z,1.80
2018-04-04T09:00:34.636Z,1.73
2018-04-04T09:03:01.538Z,1.50
2018-04-04T09:05:28.476Z,1.45
2018-04-04T09:07:55.324Z,1.15
2018-04-04T09:10:22.197Z,1.33
2018-04-04T09:12:49.469Z,1.20
2018-04-04T09:15:16.313Z,1.20
2018-04-04T09:17:43.211Z,1.15
2018-04-04T09:20:10.472Z,1.00
2018-04-04T09:22:37.336Z,0.90
2018-04-04T09:25:04.251Z,0.93
2018-04-04T09:27:31.379Z,1.10
2018-04-04T09:29:58.220Z,0.90
2018-04-04T09:32:25.373Z,0.98
2018-04-04T09:34:52.200Z,0.80
2018-04-04T09:37:19.018Z,0.93
2018-04-04T09:39:45.822Z,1.00
2018-04-04T09:42:12.686Z,0.80
2018-04-04T09:44:39.499Z,0.90
2018-04-04T09:47:06.336Z,0.90
2018-04-04T09:49:33.160Z,1.00
2018-04-04T09:52:00.324Z,1.20
2018-04-04T09:54:27.176Z,0.90
2018-04-04T09:56:54.033Z,1.55
2018-04-04T09:59:20.839Z,1.40
2018-04-04T10:01:47.671Z,0.95
2018-04-04T10:04:14.843Z,0.80
2018-04-04T10:06:41.684Z,0.80
2018-04-04T10:09:08.512Z,0.80
2018-04-04T10:11:35.325Z,0.90
2018-04-04T10:14:02.221Z,0.90
2018-04-04T10:16:29.084Z,1.17
2018-04-04T10:18:55.887Z,0.70
2018-04-04T10:21:22.993Z,1.10
2018-04-04T10:23:49.782Z,1.30
2018-04-04T10:26:16.677Z,1.40
2018-04-04T10:28:43.538Z,1.60
2018-04-04T10:31:10.351Z,0.80
2018-04-04T10:33:37.209Z,0.90
2018-04-04T10:36:04.049Z,1.10
2018-04-04T10:38:30.909Z,0.80
2018-04-04T10:40:58.003Z,1.00
2018-04-04T10:43:24.812Z,0.90
2018-04-04T10:45:52.002Z,1.00
2018-04-04T10:48:18.823Z,0.90
2018-04-04T10:50:45.742Z,1.00
2018-04-04T10:53:12.859Z,0.90
2018-04-04T10:55:39.710Z,0.70
2018-04-04T10:58:06.577Z,1.00
2018-04-04T11:00:33.771Z,0.80
2018-04-04T11:03:00.602Z,0.93
2018-04-04T11:05:27.456Z,0.98
2018-04-04T11:07:54.268Z,1.00
2018-04-04T11:10:21.103Z,1.00
2018-04-04T11:12:47.910Z,1.00
2018-04-04T11:15:14.743Z,0.80
2018-04-04T11:17:41.673Z,0.80
2018-04-04T11:20:08.508Z,1.03
2018-04-04T11:22:35.334Z,0.70
2018-04-04T11:25:02.411Z,1.00
2018-04-04T11:27:29.262Z,0.90
2018-04-04T11:29:56.408Z,1.00
2018-04-04T11:32:23.305Z,0.90
2018-04-04T11:34:50.174Z,0.90
2018-04-04T11:37:17.307Z,0.80
2018-04-04T11:39:44.087Z,0.90
2018-04-04T11:42:10.952Z,0.77
2018-04-04T11:44:37.796Z,0.90
2018-04-04T11:47:04.931Z,0.80
2018-04-04T11:49:31.772Z,0.88
2018-04-04T11:51:58.920Z,0.80
2018-04-04T11:54:25.744Z,0.80
2018-04-04T11:56:52.563Z,0.93
2018-04-04T11:59:19.648Z,1.10
2018-04-04T12:01:46.695Z,2.20
2018-04-04T12:04:13.855Z,1.50
2018-04-04T12:06:40.744Z,1.60
2018-04-04T12:09:07.848Z,1.90
2018-04-04T12:11:34.997Z,1.50
2018-04-04T12:14:01.907Z,1.62
2018-04-04T12:16:28.734Z,0.90
2018-04-04T12:18:55.563Z,0.80
2018-04-04T12:21:22.676Z,0.80
2018-04-04T12:23:49.540Z,1.00
2018-04-04T12:26:16.347Z,1.00
2018-04-04T12:28:43.521Z,1.00
2018-04-04T12:31:10.378Z,1.00
2018-04-04T12:33:37.228Z,1.00
2018-04-04T12:36:04.101Z,1.02
2018-04-04T12:38:31.049Z,0.90
2018-04-04T12:40:57.878Z,1.10
2018-04-04T12:43:24.980Z,0.90
2018-04-04T12:45:52.135Z,1.00
2018-04-04T12:48:18.980Z,1.00
2018-04-04T12:50:46.125Z,1.00
2018-04-04T12:53:13.271Z,0.90
2018-04-04T12:55:40.108Z,0.90
2018-04-04T12:58:07.107Z,1.10
2018-04-04T13:00:34.116Z,0.98
2018-04-04T13:03:01.272Z,0.98
2018-04-04T13:05:28.150Z,0.80
2018-04-04T13:07:55.716Z,1.10
2018-04-04T13:10:23.146Z,1.00
2018-04-04T13:12:50.000Z,1.10
2018-04-04T13:15:16.942Z,0.90
2018-04-04T13:17:43.839Z,0.80
2018-04-04T13:20:10.646Z,1.00
2018-04-04T13:22:37.655Z,0.90
2018-04-04T13:25:04.438Z,0.80
2018-04-04T13:27:31.263Z,0.80
2018-04-04T13:29:58.099Z,0.90
2018-04-04T13:32:24.890Z,1.15
2018-04-04T13:34:51.686Z,1.00
2018-04-04T13:37:18.846Z,0.90
2018-04-04T13:39:48.923Z,0.95
2018-04-04T13:42:18.686Z,1.05
2018-04-04T13:44:45.528Z,0.90
2018-04-04T13:47:12.350Z,0.90
2018-04-04T13:49:39.373Z,0.88
2018-04-04T13:52:06.382Z,0.80
2018-04-04T13:57:18.584Z,0.80
2018-04-04T13:59:45.483Z,0.75
2018-04-04T14:02:12.354Z,0.80
2018-04-04T14:04:39.167Z,0.80
2018-04-04T14:07:06.012Z,0.80
2018-04-04T14:09:32.888Z,1.27
2018-04-04T14:11:59.680Z,0.80
2018-04-04T14:14:26.495Z,0.73
2018-04-04T14:16:53.391Z,0.80
2018-04-04T14:19:20.214Z,0.90
2018-04-04T14:21:47.276Z,1.00
2018-04-04T14:24:14.433Z,0.90
2018-04-04T14:26:41.372Z,0.90
2018-04-04T14:29:08.200Z,1.10
2018-04-04T14:31:35.105Z,1.30
2018-04-04T14:34:01.927Z,0.90
2018-04-04T14:36:29.056Z,1.30
2018-04-04T14:38:55.892Z,1.10
2018-04-04T14:41:23.043Z,1.00
2018-04-04T14:43:49.900Z,0.90
2018-04-04T14:46:16.720Z,1.10
2018-04-04T14:48:43.571Z,0.90
2018-04-04T14:51:10.431Z,1.23
2018-04-04T14:53:37.253Z,0.85
2018-04-04T14:56:04.108Z,0.90
2018-04-04T14:58:31.555Z,1.00
2018-04-04T15:00:58.618Z,1.20
2018-04-04T15:03:25.683Z,1.00
2018-04-04T15:05:53.681Z,1.17
2018-04-04T15:08:20.848Z,1.55
2018-04-04T15:10:48.075Z,1.33
2018-04-04T15:13:15.216Z,1.30
2018-04-04T15:15:42.536Z,1.52
2018-04-04T15:18:10.902Z,1.77
2018-04-04T15:20:38.117Z,2.40
2018-04-04T15:23:05.434Z,1.80
2018-04-04T15:25:32.593Z,2.10
2018-04-04T15:27:59.410Z,1.80
2018-04-04T15:30:26.572Z,1.70
2018-04-04T15:32:53.578Z,1.80
2018-04-04T15:35:20.517Z,2.60
2018-04-04T15:37:49.622Z,2.17
2018-04-04T15:40:16.729Z,4.25
2018-04-04T15:42:44.580Z,9.35
2018-04-04T15:45:11.444Z,23.00
2018-04-04T15:47:38.304Z,4.37
2018-04-04T15:50:05.203Z,2.28
2018-04-04T15:52:32.053Z,1.50
2018-04-04T15:54:59.007Z,1.60
2018-04-04T15:57:25.932Z,2.10
2018-04-04T15:59:52.788Z,2.60
2018-04-04T16:02:19.638Z,2.40
2018-04-04T16:04:46.498Z,1.52
2018-04-04T16:07:13.398Z,1.80
2018-04-04T16:09:40.571Z,1.70
2018-04-04T16:12:07.391Z,1.77
2018-04-04T16:14:34.289Z,2.28
2018-04-04T16:17:01.253Z,2.30
2018-04-04T16:19:28.127Z,2.43
2018-04-04T16:21:54.957Z,1.70
2018-04-04T16:24:21.824Z,1.50
2018-04-04T16:26:48.974Z,1.40
2018-04-04T16:29:15.845Z,1.60
2018-04-04T16:31:42.678Z,2.33
2018-04-04T16:34:09.561Z,1.67
2018-04-04T16:36:36.635Z,1.40
2018-04-04T16:39:03.447Z,1.60
2018-04-04T16:41:30.321Z,1.50
2018-04-04T16:43:57.392Z,1.50
2018-04-04T16:46:24.549Z,1.83
2018-04-04T16:48:51.696Z,2.20
2018-04-04T16:51:18.584Z,2.12
2018-04-04T16:53:45.439Z,1.90
2018-04-04T16:56:12.380Z,2.00
2018-04-04T16:58:39.419Z,1.85
2018-04-04T17:01:06.264Z,1.80
2018-04-04T17:03:33.372Z,1.75
2018-04-04T17:06:00.522Z,1.90
2018-04-04T17:08:27.374Z,1.70
2018-04-04T17:10:54.323Z,1.65
2018-04-04T17:13:21.143Z,1.80
2018-04-04T17:15:48.012Z,2.75
2018-04-04T17:18:14.910Z,3.90
2018-04-04T17:20:41.840Z,1.90
2018-04-04T17:23:08.680Z,2.30
2018-04-04T17:25:35.544Z,2.70
2018-04-04T17:28:02.570Z,2.80
2018-04-04T17:30:29.697Z,2.80
2018-04-04T17:32:56.925Z,3.00
2018-04-04T17:35:24.074Z,2.87
2018-04-04T17:37:51.747Z,2.75
2018-04-04T17:40:18.606Z,3.05
2018-04-04T17:42:45.733Z,2.80
2018-04-04T17:45:12.953Z,3.30
2018-04-04T17:47:40.026Z,3.20
2018-04-04T17:50:06.835Z,10.80
2018-04-04T17:52:33.720Z,4.75
2018-04-04T17:55:01.022Z,3.35
2018-04-04T17:57:28.075Z,3.90
2018-04-04T17:59:55.271Z,3.80
2018-04-04T18:02:22.194Z,3.30
2018-04-04T18:04:49.016Z,3.83
2018-04-04T18:07:15.895Z,3.70
2018-04-04T18:09:42.683Z,3.50
2018-04-04T18:12:09.533Z,3.60
2018-04-04T18:14:36.386Z,3.50
2018-04-04T18:17:03.491Z,4.00
2018-04-04T18:19:30.692Z,3.62
2018-04-04T18:21:57.523Z,3.70
2018-04-04T18:24:27.808Z,3.90
2018-04-04T18:26:54.668Z,3.72
2018-04-04T18:29:21.487Z,3.80
2018-04-04T18:31:48.333Z,3.60
2018-04-04T18:34:15.151Z,4.22
2018-04-04T18:36:41.985Z,3.60
2018-04-04T18:39:08.850Z,3.60
2018-04-04T18:41:36.008Z,4.40
2018-04-04T18:44:03.058Z,4.80
2018-04-04T18:46:29.898Z,4.47
2018-04-04T18:48:57.053Z,4.10
2018-04-04T18:51:23.877Z,3.90
2018-04-04T18:53:56.831Z,3.72
2018-04-04T18:56:23.886Z,3.70
2018-04-04T18:58:50.708Z,4.20
2018-04-04T19:01:17.589Z,3.60
2018-04-04T19:03:44.436Z,3.20
2018-04-04T19:06:11.247Z,3.60
2018-04-04T19:08:38.119Z,3.20
2018-04-04T19:11:04.956Z,3.90
2018-04-04T19:13:31.766Z,3.00
2018-04-04T19:15:58.681Z,3.33
2018-04-04T19:18:25.909Z,3.50
2018-04-04T19:20:52.803Z,3.33
2018-04-04T19:23:19.686Z,3.62
2018-04-04T19:25:46.530Z,3.50
2018-04-04T19:28:13.961Z,3.40
2018-04-04T19:30:41.271Z,3.25
2018-04-04T19:33:08.117Z,3.62
2018-04-04T19:35:34.963Z,3.83
2018-04-04T19:38:01.788Z,4.28
2018-04-04T19:40:28.639Z,3.70
2018-04-04T19:42:55.444Z,3.10
2018-04-04T19:45:22.326Z,3.00
2018-04-04T19:47:49.184Z,2.90
2018-04-04T19:50:16.356Z,2.70
2018-04-04T19:52:43.228Z,2.70
2018-04-04T19:55:10.325Z,2.60
2018-04-04T19:57:37.153Z,2.50
2018-04-04T20:00:04.020Z,2.40
2018-04-04T20:02:31.151Z,3.00
2018-04-04T20:04:57.964Z,2.50
2018-04-04T20:07:24.810Z,3.00
2018-04-04T20:09:51.668Z,2.60
2018-04-04T20:12:18.728Z,2.80
2018-04-04T20:14:45.584Z,2.30
2018-04-04T20:17:12.411Z,1.95
2018-04-04T20:19:39.239Z,2.30
2018-04-04T20:22:06.068Z,2.80
2018-04-04T20:24:32.937Z,2.97
2018-04-04T20:27:00.098Z,3.00
2018-04-04T20:29:26.930Z,2.70
2018-04-04T20:31:53.748Z,4.20
2018-04-04T20:34:20.560Z,3.58
2018-04-04T20:36:47.426Z,3.30
2018-04-04T20:39:14.243Z,3.97
2018-04-04T20:41:41.113Z,4.30
2018-04-04T20:44:07.947Z,4.18
2018-04-04T20:46:34.755Z,4.40
2018-04-04T20:49:01.892Z,4.60
2018-04-04T20:51:29.044Z,4.80
2018-04-04T20:53:55.888Z,5.47
2018-04-04T20:56:22.728Z,5.50
2018-04-04T20:58:50.800Z,5.20
2018-04-04T21:01:17.645Z,5.68
2018-04-04T21:03:44.800Z,6.00
2018-04-04T21:06:11.631Z,5.60
2018-04-04T21:08:38.685Z,6.72
2018-04-04T21:11:05.560Z,7.28
2018-04-04T21:13:32.402Z,8.00
2018-04-04T21:15:59.221Z,7.60
2018-04-04T21:18:26.031Z,8.13
2018-04-04T21:20:52.868Z,8.30
2018-04-04T21:23:19.724Z,8.60
2018-04-04T21:25:46.568Z,8.40
2018-04-04T21:28:13.738Z,8.85
2018-04-04T21:30:40.560Z,9.75
2018-04-04T21:33:07.737Z,10.15
2018-04-04T21:35:34.579Z,11.18
2018-04-04T21:38:01.779Z,10.60
2018-04-04T21:40:28.928Z,11.50
2018-04-04T21:42:55.780Z,12.95
2018-04-04T21:45:22.867Z,12.37
2018-04-04T21:47:49.720Z,13.30
2018-04-04T21:50:16.761Z,13.80
2018-04-04T21:52:43.583Z,15.20
2018-04-04T21:55:10.406Z,15.20
2018-04-04T21:57:37.312Z,15.52
2018-04-04T22:00:05.140Z,16.73
2018-04-04T22:02:32.461Z,18.02
2018-04-04T22:04:59.385Z,17.98
2018-04-04T22:07:26.240Z,18.80
2018-04-04T22:09:53.063Z,18.77
2018-04-04T22:12:19.907Z,19.15
2018-04-04T22:14:47.035Z,19.77
2018-04-04T22:17:13.967Z,20.33
2018-04-04T22:19:40.889Z,21.37
2018-04-04T22:22:08.000Z,22.13
2018-04-04T22:24:35.111Z,21.50
2018-04-04T22:27:02.037Z,21.87
2018-04-04T22:29:29.488Z,19.48
2018-04-04T22:31:57.566Z,19.67
2018-04-04T22:34:25.103Z,20.75
2018-04-04T22:36:52.171Z,19.70
2018-04-04T22:39:19.102Z,20.20
2018-04-04T22:41:46.218Z,19.98
2018-04-04T22:44:13.030Z,19.37
2018-04-04T22:46:39.892Z,19.80
2018-04-04T22:49:08.779Z,19.00
2018-04-04T22:51:37.106Z,18.20
2018-04-04T22:54:04.342Z,16.98
2018-04-04T22:56:35.171Z,16.62
2018-04-04T22:59:02.734Z,15.80
2018-04-04T23:01:31.531Z,15.90
2018-04-04T23:04:00.089Z,14.30
2018-04-04T23:06:28.031Z,13.82
2018-04-04T23:08:55.870Z,13.82
2018-04-04T23:11:22.960Z,13.10
2018-04-04T23:13:50.115Z,12.23
2018-04-04T23:16:16.939Z,13.05
2018-04-04T23:18:43.794Z,11.80
2018-04-04T23:21:10.661Z,12.60
2018-04-04T23:23:37.521Z,12.35
2018-04-04T23:26:04.402Z,13.30
2018-04-04T23:28:31.272Z,13.13
2018-04-04T23:30:58.087Z,13.73
2018-04-04T23:33:25.277Z,13.85
2018-04-04T23:35:52.108Z,13.62
2018-04-04T23:38:18.929Z,12.30
2018-04-04T23:40:45.867Z,12.70
2018-04-04T23:43:12.707Z,12.60
2018-04-04T23:45:39.900Z,12.10
2018-04-04T23:48:07.052Z,12.55
2018-04-04T23:50:33.867Z,12.30
2018-04-04T23:53:00.943Z,12.18
2018-04-04T23:55:27.807Z,11.90
2018-04-04T23:57:54.936Z,11.57
